createdAt,value
2022-08-17T00:02:26.502Z,17.38
2022-08-17T00:04:55.368Z,15.98
2022-08-17T00:07:23.404Z,16.65
2022-08-17T00:09:50.379Z,16.85
2022-08-17T00:12:42.084Z,16.77
2022-08-17T00:15:10.484Z,15.68
2022-08-17T00:17:38.238Z,17.80
2022-08-17T00:20:06.816Z,17.48
2022-08-17T00:22:36.385Z,17.75
2022-08-17T00:25:09.223Z,17.27
2022-08-17T00:27:37.041Z,18.50
2022-08-17T00:30:08.205Z,18.38
2022-08-17T00:33:14.104Z,18.15
2022-08-17T00:35:31.908Z,16.52
2022-08-17T00:37:59.082Z,17.10
2022-08-17T00:40:26.403Z,17.85
2022-08-17T00:43:15.830Z,18.50
2022-08-17T00:45:43.044Z,17.52
2022-08-17T00:48:11.566Z,16.40
2022-08-17T00:50:59.454Z,17.20
2022-08-17T00:53:30.692Z,16.60
2022-08-17T00:56:01.731Z,15.73
2022-08-17T00:58:35.838Z,17.17
2022-08-17T01:01:04.293Z,16.92
2022-08-17T01:03:31.604Z,16.52
2022-08-17T01:06:02.596Z,16.75
2022-08-17T01:08:31.267Z,16.15
2022-08-17T01:11:02.325Z,17.30
2022-08-17T01:13:41.731Z,15.98
2022-08-17T01:16:16.984Z,17.10
2022-08-17T01:18:47.182Z,15.98
2022-08-17T01:21:33.446Z,16.58
2022-08-17T01:24:01.798Z,15.07
2022-08-17T01:26:30.522Z,15.85
2022-08-17T01:28:57.782Z,14.93
2022-08-17T01:31:30.274Z,15.57
2022-08-17T01:34:01.879Z,15.75
2022-08-17T01:36:29.527Z,16.52
2022-08-17T01:38:56.594Z,15.65
2022-08-17T01:41:24.817Z,16.17
2022-08-17T01:43:56.894Z,15.75
2022-08-17T01:46:27.499Z,14.77
2022-08-17T01:48:56.378Z,16.08
2022-08-17T01:51:27.863Z,16.30
2022-08-17T01:53:58.430Z,15.32
2022-08-17T01:56:26.998Z,16.65
2022-08-17T01:58:54.135Z,16.05
2022-08-17T02:01:24.735Z,15.85
2022-08-17T02:03:54.532Z,16.42
2022-08-17T02:06:28.493Z,15.85
2022-08-17T02:09:01.712Z,16.23
2022-08-17T02:11:33.265Z,16.95
2022-08-17T02:14:03.393Z,15.88
2022-08-17T02:16:37.611Z,15.77
2022-08-17T02:19:11.425Z,16.40
2022-08-17T02:21:41.657Z,18.50
2022-08-17T02:24:13.344Z,17.38
2022-08-17T02:26:40.667Z,15.05
2022-08-17T02:29:07.701Z,16.30
2022-08-17T02:31:35.674Z,17.05
2022-08-17T02:34:04.999Z,18.13
2022-08-17T02:36:38.002Z,20.17
2022-08-17T02:39:07.251Z,16.70
2022-08-17T02:41:34.488Z,17.40
2022-08-17T02:44:02.911Z,16.90
2022-08-17T02:46:31.112Z,16.98
2022-08-17T02:48:59.182Z,15.77
2022-08-17T02:51:27.873Z,15.70
2022-08-17T02:54:05.327Z,15.73
2022-08-17T02:56:42.104Z,16.45
2022-08-17T02:59:09.220Z,16.75
2022-08-17T03:01:37.349Z,15.18
2022-08-17T03:04:04.563Z,16.38
2022-08-17T03:06:31.879Z,18.75
2022-08-17T03:08:59.151Z,17.77
2022-08-17T03:11:26.245Z,17.88
2022-08-17T03:13:53.396Z,18.38
2022-08-17T03:16:20.635Z,19.27
2022-08-17T03:18:48.591Z,19.63
2022-08-17T03:21:15.819Z,19.13
2022-08-17T03:23:42.729Z,19.35
2022-08-17T03:26:12.267Z,18.33
2022-08-17T03:28:42.689Z,18.05
2022-08-17T03:31:09.584Z,20.02
2022-08-17T03:33:36.710Z,17.35
2022-08-17T03:36:04.194Z,18.25
2022-08-17T03:38:39.370Z,17.95
2022-08-17T03:41:07.371Z,15.93
2022-08-17T03:43:34.841Z,19.13
2022-08-17T03:46:27.867Z,18.52
2022-08-17T03:49:23.886Z,19.05
2022-08-17T03:52:09.685Z,16.75
2022-08-17T03:54:55.572Z,15.88
2022-08-17T03:57:22.907Z,17.05
2022-08-17T03:59:50.097Z,17.13
2022-08-17T04:02:21.244Z,16.23
2022-08-17T04:04:50.959Z,16.67
2022-08-17T04:07:23.319Z,16.35
2022-08-17T04:09:50.345Z,18.67
2022-08-17T04:12:19.702Z,19.63
2022-08-17T04:14:52.810Z,17.98
2022-08-17T04:17:22.805Z,18.23
2022-08-17T04:19:49.985Z,19.33
2022-08-17T04:22:31.994Z,18.25
2022-08-17T04:25:07.621Z,19.35
2022-08-17T04:27:34.763Z,19.27
2022-08-17T04:30:02.219Z,18.67
2022-08-17T04:33:04.769Z,19.20
2022-08-17T04:35:26.807Z,20.17
2022-08-17T04:37:53.892Z,19.45
2022-08-17T04:40:41.081Z,19.98
2022-08-17T04:43:14.491Z,19.85
2022-08-17T04:45:56.228Z,20.58
2022-08-17T04:48:36.873Z,19.13
2022-08-17T04:51:10.032Z,21.83
2022-08-17T04:53:39.040Z,19.40
2022-08-17T04:56:06.523Z,19.33
2022-08-17T04:58:33.660Z,21.95
2022-08-17T05:01:01.590Z,20.35
2022-08-17T05:03:29.296Z,19.55
2022-08-17T05:05:56.382Z,21.20
2022-08-17T05:08:23.649Z,21.95
2022-08-17T05:10:50.764Z,22.98
2022-08-17T05:13:24.180Z,22.25
2022-08-17T05:15:55.437Z,20.73
2022-08-17T05:18:24.560Z,21.50
2022-08-17T05:20:52.658Z,20.67
2022-08-17T05:23:22.068Z,20.13
2022-08-17T05:25:51.552Z,21.48
2022-08-17T05:28:22.921Z,19.10
2022-08-17T05:30:51.625Z,20.38
2022-08-17T05:33:24.971Z,19.45
2022-08-17T05:35:54.535Z,17.90
2022-08-17T05:38:24.363Z,19.35
2022-08-17T05:40:51.735Z,18.45
2022-08-17T05:43:22.153Z,18.35
2022-08-17T05:46:10.867Z,18.88
2022-08-17T05:48:47.224Z,18.77
2022-08-17T05:51:38.360Z,18.02
2022-08-17T05:54:33.253Z,16.30
2022-08-17T05:57:25.061Z,17.45
2022-08-17T06:00:11.243Z,16.00
2022-08-17T06:03:09.080Z,16.17
2022-08-17T06:06:07.039Z,17.75
2022-08-17T06:08:46.141Z,16.88
2022-08-17T06:11:20.646Z,16.08
2022-08-17T06:14:13.862Z,15.50
2022-08-17T06:16:48.083Z,15.75
2022-08-17T06:19:38.293Z,15.50
2022-08-17T06:22:08.646Z,15.60
2022-08-17T06:24:48.252Z,16.58
2022-08-17T06:27:21.233Z,15.40
2022-08-17T06:30:14.548Z,15.70
2022-08-17T06:32:47.567Z,15.63
2022-08-17T06:35:27.787Z,14.90
2022-08-17T06:38:34.981Z,14.38
2022-08-17T06:41:07.160Z,13.82
2022-08-17T06:43:56.769Z,13.68
2022-08-17T06:46:35.091Z,14.02
2022-08-17T06:49:17.760Z,13.50
2022-08-17T06:52:46.106Z,13.93
2022-08-17T06:55:17.795Z,13.40
2022-08-17T06:57:51.391Z,12.43
2022-08-17T07:00:36.293Z,12.57
2022-08-17T07:03:10.064Z,12.15
2022-08-17T07:06:11.059Z,11.32
2022-08-17T07:09:00.105Z,11.82
2022-08-17T07:11:55.327Z,10.23
2022-08-17T07:14:36.561Z,10.88
2022-08-17T07:17:14.269Z,10.10
2022-08-17T07:19:45.710Z,11.32
2022-08-17T07:22:57.423Z,11.68
2022-08-17T07:25:25.850Z,10.60
2022-08-17T07:27:55.917Z,11.77
2022-08-17T07:30:29.606Z,10.90
2022-08-17T07:33:13.389Z,10.73
2022-08-17T07:35:44.759Z,11.45
2022-08-17T07:38:25.748Z,10.68
2022-08-17T07:41:02.619Z,11.27
2022-08-17T07:43:34.748Z,10.65
2022-08-17T07:46:37.200Z,10.50
2022-08-17T07:49:05.058Z,10.52
2022-08-17T07:51:38.456Z,10.48
2022-08-17T07:54:26.056Z,11.80
2022-08-17T07:57:10.946Z,10.48
2022-08-17T07:59:43.408Z,9.50
2022-08-17T08:02:33.895Z,9.55
2022-08-17T08:05:48.803Z,9.70
2022-08-17T08:08:37.508Z,10.40
2022-08-17T08:11:28.602Z,11.02
2022-08-17T08:13:57.039Z,9.68
2022-08-17T08:16:31.787Z,11.15
2022-08-17T08:19:02.622Z,11.02
2022-08-17T08:21:41.843Z,10.07
2022-08-17T08:24:31.045Z,11.02
2022-08-17T08:27:07.206Z,11.32
2022-08-17T08:29:53.946Z,12.25
2022-08-17T08:32:36.909Z,11.73
2022-08-17T08:35:13.093Z,11.27
2022-08-17T08:37:59.541Z,10.25
2022-08-17T08:40:42.977Z,11.20
2022-08-17T08:43:39.275Z,10.60
2022-08-17T08:46:09.388Z,10.50
2022-08-17T08:49:13.212Z,10.93
2022-08-17T08:51:52.157Z,11.02
2022-08-17T08:54:53.904Z,10.10
2022-08-17T08:57:33.484Z,9.68
2022-08-17T09:00:04.169Z,10.13
2022-08-17T09:02:40.178Z,9.60
2022-08-17T09:05:26.200Z,9.18
2022-08-17T09:08:21.559Z,10.20
2022-08-17T09:11:06.498Z,9.77
2022-08-17T09:13:43.484Z,10.70
2022-08-17T09:16:16.487Z,9.85
2022-08-17T09:19:00.554Z,9.95
2022-08-17T09:21:48.623Z,9.88
2022-08-17T09:25:07.182Z,9.70
2022-08-17T09:27:38.597Z,10.95
2022-08-17T09:30:10.860Z,9.82
2022-08-17T09:32:44.460Z,10.40
2022-08-17T09:35:37.096Z,9.88
2022-08-17T09:38:32.651Z,10.23
2022-08-17T09:41:02.860Z,9.32
2022-08-17T09:43:41.594Z,11.20
2022-08-17T09:46:16.558Z,10.98
2022-08-17T09:48:56.482Z,10.40
2022-08-17T09:51:36.913Z,10.60
2022-08-17T09:54:36.901Z,9.60
2022-08-17T09:57:28.650Z,11.05
2022-08-17T10:00:18.975Z,9.73
2022-08-17T10:03:02.654Z,11.30
2022-08-17T10:05:29.462Z,10.25
2022-08-17T10:08:09.254Z,10.00
2022-08-17T10:10:56.525Z,10.85
2022-08-17T10:13:53.227Z,10.60
2022-08-17T10:16:45.491Z,9.85
2022-08-17T10:19:15.622Z,9.52
2022-08-17T10:22:14.358Z,11.55
2022-08-17T10:25:21.761Z,10.70
2022-08-17T10:27:59.906Z,9.75
2022-08-17T10:30:31.599Z,9.40
2022-08-17T10:33:06.796Z,9.68
2022-08-17T10:35:48.983Z,10.27
2022-08-17T10:38:58.974Z,10.60
2022-08-17T10:41:40.855Z,10.23
2022-08-17T10:44:38.353Z,9.52
2022-08-17T10:47:15.104Z,9.65
2022-08-17T10:49:49.656Z,9.70
2022-08-17T10:52:30.466Z,9.10
2022-08-17T10:55:18.807Z,8.60
2022-08-17T10:57:50.307Z,8.63
2022-08-17T11:00:28.472Z,9.75
2022-08-17T11:02:57.588Z,9.48
2022-08-17T11:05:34.126Z,8.68
2022-08-17T11:08:14.497Z,9.05
2022-08-17T11:10:52.361Z,9.18
2022-08-17T11:13:41.290Z,7.47
2022-08-17T11:16:47.952Z,9.07
2022-08-17T11:19:52.302Z,8.35
2022-08-17T11:22:42.250Z,8.63
2022-08-17T11:25:21.126Z,8.65
2022-08-17T11:28:04.302Z,9.57
2022-08-17T11:30:43.538Z,9.18
2022-08-17T11:33:29.934Z,7.35
2022-08-17T11:36:31.669Z,7.13
2022-08-17T11:39:25.781Z,7.20
2022-08-17T11:42:11.826Z,6.88
2022-08-17T11:44:52.573Z,7.32
2022-08-17T11:48:26.536Z,7.07
2022-08-17T11:51:35.056Z,7.32
2022-08-17T11:57:21.539Z,6.35
2022-08-17T11:59:48.647Z,6.50
2022-08-17T12:02:35.337Z,6.32
2022-08-17T12:05:27.539Z,5.43
2022-08-17T12:07:57.417Z,5.53
2022-08-17T12:10:31.876Z,5.20
2022-08-17T12:13:02.313Z,5.57
2022-08-17T12:15:34.520Z,5.05
2022-08-17T12:18:01.791Z,6.18
2022-08-17T12:20:40.012Z,6.03
2022-08-17T12:23:24.018Z,5.38
2022-08-17T12:26:03.432Z,5.25
2022-08-17T12:28:43.954Z,4.60
2022-08-17T12:31:21.771Z,5.03
2022-08-17T12:33:50.057Z,5.20
2022-08-17T12:36:24.701Z,5.22
2022-08-17T12:39:13.935Z,5.55
2022-08-17T12:41:47.897Z,5.68
2022-08-17T12:44:17.150Z,5.38
2022-08-17T12:46:52.583Z,4.72
2022-08-17T12:49:28.098Z,5.22
2022-08-17T12:52:06.807Z,5.18
2022-08-17T12:55:02.988Z,5.20
2022-08-17T12:57:38.042Z,5.38
2022-08-17T13:00:22.078Z,5.45
2022-08-17T13:02:53.505Z,5.05
2022-08-17T13:05:35.999Z,5.00
2022-08-17T13:08:13.520Z,5.00
2022-08-17T13:10:40.898Z,4.88
2022-08-17T13:13:23.767Z,5.20
2022-08-17T13:15:59.814Z,5.53
2022-08-17T13:18:46.631Z,4.90
2022-08-17T13:21:19.367Z,4.90
2022-08-17T13:24:17.618Z,5.30
2022-08-17T13:27:07.785Z,5.07
2022-08-17T13:29:53.464Z,4.78
2022-08-17T13:32:33.827Z,4.50
2022-08-17T13:35:16.257Z,5.03
2022-08-17T13:38:06.538Z,4.90
2022-08-17T13:40:41.676Z,4.63
2022-08-17T13:43:10.517Z,5.13
2022-08-17T13:45:46.305Z,4.60
2022-08-17T13:48:29.220Z,4.97
2022-08-17T13:50:56.211Z,4.72
2022-08-17T13:53:27.331Z,4.68
2022-08-17T13:56:00.680Z,4.95
2022-08-17T13:58:35.353Z,4.50
2022-08-17T14:01:28.776Z,4.50
2022-08-17T14:03:56.694Z,4.20
2022-08-17T14:06:53.327Z,4.97
2022-08-17T14:09:15.364Z,4.88
2022-08-17T14:11:43.444Z,5.28
2022-08-17T14:14:11.302Z,4.82
2022-08-17T14:16:41.794Z,5.38
2022-08-17T14:19:11.520Z,4.95
2022-08-17T14:21:43.627Z,5.38
2022-08-17T14:24:23.799Z,5.20
2022-08-17T14:26:54.529Z,5.70
2022-08-17T14:29:23.305Z,5.70
2022-08-17T14:31:53.236Z,5.07
2022-08-17T14:34:22.350Z,5.15
2022-08-17T14:36:49.586Z,5.30
2022-08-17T14:39:17.152Z,5.93
2022-08-17T14:41:44.364Z,5.70
2022-08-17T14:44:12.573Z,6.10
2022-08-17T14:46:41.509Z,6.03
2022-08-17T14:49:11.548Z,6.15
2022-08-17T14:51:39.740Z,6.90
2022-08-17T14:54:32.978Z,6.35
2022-08-17T14:57:23.863Z,6.38
2022-08-17T14:59:55.452Z,6.18
2022-08-17T15:02:30.532Z,6.28
2022-08-17T15:05:05.928Z,5.90
2022-08-17T15:07:33.085Z,6.68
2022-08-17T15:10:01.392Z,6.00
2022-08-17T15:12:34.563Z,6.15
2022-08-17T15:15:06.331Z,6.38
2022-08-17T15:17:45.254Z,6.05
2022-08-17T15:20:20.957Z,6.18
2022-08-17T15:22:49.991Z,6.88
2022-08-17T15:25:19.057Z,6.78
2022-08-17T15:27:45.999Z,6.90
2022-08-17T15:30:13.591Z,6.00
2022-08-17T15:32:45.698Z,6.72
2022-08-17T15:35:19.711Z,6.93
2022-08-17T15:37:54.453Z,6.60
2022-08-17T15:40:21.262Z,6.22
2022-08-17T15:42:48.032Z,6.82
2022-08-17T15:45:16.975Z,6.57
2022-08-17T15:47:43.937Z,6.40
2022-08-17T15:50:11.079Z,6.88
2022-08-17T15:52:40.465Z,6.35
2022-08-17T15:55:11.919Z,7.18
2022-08-17T15:57:39.143Z,6.45
2022-08-17T16:00:08.032Z,6.97
2022-08-17T16:03:46.253Z,7.35
2022-08-17T16:05:25.306Z,7.85
2022-08-17T16:07:53.189Z,8.07
2022-08-17T16:10:20.998Z,7.22
2022-08-17T16:12:49.978Z,7.70
2022-08-17T16:15:17.783Z,8.65
2022-08-17T16:17:44.593Z,8.45
2022-08-17T16:20:20.456Z,9.15
2022-08-17T16:22:50.017Z,7.95
2022-08-17T16:25:52.122Z,8.07
2022-08-17T16:28:12.795Z,8.63
2022-08-17T16:30:41.307Z,8.07
2022-08-17T16:33:11.333Z,7.72
2022-08-17T16:35:38.663Z,7.85
2022-08-17T16:38:07.017Z,7.50
2022-08-17T16:40:36.064Z,7.57
2022-08-17T16:43:07.003Z,8.05
2022-08-17T16:45:36.647Z,7.78
2022-08-17T16:48:04.479Z,7.63
2022-08-17T16:50:32.050Z,7.72
2022-08-17T16:53:17.792Z,8.00
2022-08-17T16:55:45.613Z,8.15
2022-08-17T16:58:13.070Z,7.68
2022-08-17T17:00:42.120Z,7.97
2022-08-17T17:03:20.247Z,7.80
2022-08-17T17:06:15.736Z,8.38
2022-08-17T17:09:08.047Z,8.38
2022-08-17T17:11:52.728Z,7.85
2022-08-17T17:14:42.982Z,9.02
2022-08-17T17:17:33.799Z,7.95
2022-08-17T17:20:07.823Z,9.00
2022-08-17T17:22:47.976Z,9.25
2022-08-17T17:25:44.519Z,10.90
2022-08-17T17:28:36.656Z,8.48
2022-08-17T17:31:10.592Z,8.90
2022-08-17T17:33:48.242Z,8.80
2022-08-17T17:36:46.067Z,9.70
2022-08-17T17:39:12.827Z,9.50
2022-08-17T17:41:49.351Z,10.30
2022-08-17T17:44:20.003Z,11.27
2022-08-17T17:46:54.442Z,12.45
2022-08-17T17:49:21.769Z,12.45
2022-08-17T17:52:19.330Z,11.43
2022-08-17T17:54:54.105Z,13.60
2022-08-17T17:58:04.236Z,13.05
2022-08-17T18:01:19.311Z,11.80
2022-08-17T18:04:05.116Z,12.13
2022-08-17T18:06:55.841Z,13.73
2022-08-17T18:09:51.675Z,12.93
2022-08-17T18:12:39.987Z,12.93
2022-08-17T18:15:15.694Z,13.32
2022-08-17T18:18:19.702Z,13.70
2022-08-17T18:20:53.952Z,13.88
2022-08-17T18:23:28.031Z,15.27
2022-08-17T18:25:58.636Z,14.50
2022-08-17T18:28:41.123Z,14.40
2022-08-17T18:31:16.986Z,13.52
2022-08-17T18:33:50.110Z,14.00
2022-08-17T18:36:32.280Z,13.80
2022-08-17T18:39:16.045Z,14.90
2022-08-17T18:41:46.888Z,14.02
2022-08-17T18:44:24.892Z,14.80
2022-08-17T18:47:15.922Z,13.98
2022-08-17T18:50:06.212Z,14.70
2022-08-17T18:52:37.707Z,15.63
2022-08-17T18:55:28.367Z,16.33
2022-08-17T18:58:17.899Z,19.05
2022-08-17T19:00:47.712Z,20.40
2022-08-17T19:03:20.259Z,22.15
2022-08-17T19:05:52.375Z,21.17
2022-08-17T19:08:28.343Z,20.38
2022-08-17T19:11:04.316Z,22.13
2022-08-17T19:13:45.266Z,23.58
2022-08-17T19:16:18.784Z,22.10
2022-08-17T19:19:09.927Z,18.55
2022-08-17T19:21:41.549Z,18.52
2022-08-17T19:24:25.096Z,18.70
2022-08-17T19:27:01.388Z,17.15
2022-08-17T19:29:44.116Z,16.88
2022-08-17T19:32:23.808Z,17.02
2022-08-17T19:34:50.861Z,16.98
2022-08-17T19:37:23.455Z,16.98
2022-08-17T19:39:50.340Z,15.45
2022-08-17T19:42:25.423Z,16.73
2022-08-17T19:45:07.166Z,15.82
2022-08-17T19:48:04.563Z,15.55
2022-08-17T19:50:55.619Z,16.63
2022-08-17T19:54:04.405Z,16.70
2022-08-17T19:57:08.277Z,15.82
2022-08-17T20:00:04.499Z,16.40
2022-08-17T20:02:57.308Z,16.05
2022-08-17T20:06:12.053Z,16.77
2022-08-17T20:08:47.439Z,16.17
2022-08-17T20:11:23.726Z,17.13
2022-08-17T20:13:59.733Z,17.15
2022-08-17T20:16:26.912Z,17.60
2022-08-17T20:19:10.868Z,17.15
2022-08-17T20:22:12.821Z,16.25
2022-08-17T20:24:46.611Z,19.05
2022-08-17T20:27:20.969Z,17.85
2022-08-17T20:30:11.010Z,19.05
2022-08-17T20:33:05.610Z,17.42
2022-08-17T20:35:38.664Z,18.40
2022-08-17T20:38:13.064Z,19.63
2022-08-17T20:41:00.742Z,17.95
2022-08-17T20:43:33.789Z,19.05
2022-08-17T20:46:23.347Z,18.63
2022-08-17T20:49:14.665Z,17.63
2022-08-17T20:52:01.449Z,18.08
2022-08-17T20:54:51.847Z,18.00
2022-08-17T20:57:46.430Z,18.25
2022-08-17T21:00:33.390Z,21.50
2022-08-17T21:03:22.048Z,23.85
2022-08-17T21:06:17.054Z,22.20
2022-08-17T21:08:53.910Z,21.00
2022-08-17T21:11:57.061Z,21.33
2022-08-17T21:14:41.132Z,21.00
2022-08-17T21:17:47.061Z,18.38
2022-08-17T21:20:32.701Z,19.23
2022-08-17T21:23:13.781Z,19.40
2022-08-17T21:26:02.845Z,19.05
2022-08-17T21:29:00.072Z,18.92
2022-08-17T21:31:46.069Z,19.58
2022-08-17T21:34:17.609Z,19.35
2022-08-17T21:36:48.177Z,20.65
2022-08-17T21:39:24.167Z,18.80
2022-08-17T21:41:58.295Z,18.92
2022-08-17T21:44:37.676Z,19.00
2022-08-17T21:47:24.684Z,20.05
2022-08-17T21:49:53.482Z,19.95
2022-08-17T21:52:23.858Z,20.83
2022-08-17T21:54:58.222Z,18.92
2022-08-17T21:57:27.705Z,20.00
2022-08-17T22:00:05.054Z,19.70
2022-08-17T22:02:37.903Z,19.58
2022-08-17T22:05:12.922Z,19.80
2022-08-17T22:07:42.836Z,19.77
2022-08-17T22:10:38.944Z,19.40
2022-08-17T22:13:05.906Z,19.58
2022-08-17T22:15:46.964Z,20.15
2022-08-17T22:18:21.694Z,19.50
2022-08-17T22:20:55.711Z,19.27
2022-08-17T22:24:00.622Z,20.13
2022-08-17T22:27:01.918Z,20.20
2022-08-17T22:29:57.172Z,20.83
2022-08-17T22:32:41.449Z,20.65
2022-08-17T22:35:35.178Z,20.58
2022-08-17T22:38:20.474Z,20.60
2022-08-17T22:40:49.849Z,20.15
2022-08-17T22:43:21.310Z,20.75
2022-08-17T22:45:57.350Z,21.25
2022-08-17T22:48:27.646Z,20.98
2022-08-17T22:51:19.131Z,20.73
2022-08-17T22:54:14.611Z,22.50
2022-08-17T22:57:30.907Z,20.83
2022-08-17T23:00:00.053Z,20.95
2022-08-17T23:02:36.331Z,19.33
2022-08-17T23:05:23.979Z,20.10
2022-08-17T23:07:52.734Z,21.42
2022-08-17T23:10:19.861Z,21.13
2022-08-17T23:12:47.650Z,20.65
2022-08-17T23:15:18.151Z,21.20
2022-08-17T23:17:45.715Z,20.58
2022-08-17T23:20:15.103Z,20.08
2022-08-17T23:22:51.794Z,20.30
2022-08-17T23:25:27.109Z,20.95
2022-08-17T23:27:54.528Z,21.00
2022-08-17T23:30:24.986Z,21.20
2022-08-17T23:32:56.561Z,21.42
2022-08-17T23:35:39.588Z,21.27
2022-08-17T23:38:10.958Z,21.02
2022-08-17T23:40:39.474Z,21.25
2022-08-17T23:43:17.532Z,21.42
2022-08-17T23:46:00.203Z,20.70
2022-08-17T23:48:35.877Z,21.52
2022-08-17T23:51:09.085Z,22.23
2022-08-17T23:53:37.546Z,22.20
2022-08-17T23:56:10.107Z,21.85
2022-08-17T23:58:39.432Z,22.67
